createdAt,value
2022-12-29T00:02:14.484Z,76.07
2022-12-29T00:04:47.027Z,76.12
2022-12-29T00:07:19.683Z,75.81
2022-12-29T00:09:52.012Z,75.74
2022-12-29T00:12:24.513Z,75.44
2022-12-29T00:15:14.215Z,75.30
2022-12-29T00:17:46.552Z,75.53
2022-12-29T00:20:36.811Z,75.88
2022-12-29T00:23:27.915Z,75.78
2022-12-29T00:26:26.286Z,75.48
2022-12-29T00:29:15.920Z,74.90
2022-12-29T00:32:06.346Z,74.73
2022-12-29T00:34:57.500Z,74.73
2022-12-29T00:37:44.292Z,74.48
2022-12-29T00:40:34.394Z,74.60
2022-12-29T00:43:24.489Z,74.40
2022-12-29T00:45:57.076Z,74.19
2022-12-29T00:48:49.011Z,74.19
2022-12-29T00:51:21.384Z,74.40
2022-12-29T00:53:53.804Z,74.05
2022-12-29T00:56:26.239Z,73.94
2022-12-29T00:59:01.777Z,74.03
2022-12-29T01:01:34.618Z,74.18
2022-12-29T01:04:07.528Z,73.97
2022-12-29T01:06:41.998Z,74.03
2022-12-29T01:09:32.119Z,73.73
2022-12-29T01:12:04.628Z,73.76
2022-12-29T01:14:37.247Z,73.33
2022-12-29T01:17:10.239Z,73.44
2022-12-29T01:19:42.693Z,73.73
2022-12-29T01:22:15.129Z,73.36
2022-12-29T01:24:47.881Z,73.59
2022-12-29T01:27:20.554Z,73.52
2022-12-29T01:29:52.923Z,73.33
2022-12-29T01:32:25.257Z,73.34
2022-12-29T01:34:57.677Z,72.82
2022-12-29T01:37:32.609Z,72.75
2022-12-29T01:40:05.583Z,72.75
2022-12-29T01:42:38.223Z,72.12
2022-12-29T01:45:15.790Z,72.64
2022-12-29T01:47:54.500Z,72.48
2022-12-29T01:50:34.518Z,72.40
2022-12-29T01:53:11.829Z,72.71
2022-12-29T01:55:48.907Z,73.40
2022-12-29T01:58:25.484Z,73.18
2022-12-29T02:00:58.128Z,72.92
2022-12-29T02:03:33.638Z,73.03
2022-12-29T02:06:10.656Z,72.95
2022-12-29T02:08:46.389Z,72.60
2022-12-29T02:11:19.854Z,72.84
2022-12-29T02:13:52.286Z,72.92
2022-12-29T02:16:38.929Z,72.94
2022-12-29T02:19:35.912Z,73.30
2022-12-29T02:22:18.585Z,73.29
2022-12-29T02:25:42.048Z,73.47
2022-12-29T02:28:45.571Z,74.17
2022-12-29T02:31:27.388Z,74.90
2022-12-29T02:34:09.259Z,74.99
2022-12-29T02:36:47.293Z,75.39
2022-12-29T02:39:29.010Z,75.65
2022-12-29T02:42:09.945Z,75.95
2022-12-29T02:44:53.927Z,76.04
2022-12-29T02:47:37.865Z,76.30
2022-12-29T02:50:17.599Z,76.82
2022-12-29T02:52:56.592Z,76.62
2022-12-29T02:55:28.921Z,76.85
2022-12-29T02:58:21.055Z,76.96
2022-12-29T03:01:17.043Z,77.54
2022-12-29T03:04:08.828Z,77.44
2022-12-29T03:06:53.306Z,78.23
2022-12-29T03:09:36.944Z,78.69
2022-12-29T03:12:23.009Z,79.00
2022-12-29T03:15:21.678Z,78.54
2022-12-29T03:18:00.287Z,78.63
2022-12-29T03:20:42.846Z,79.43
2022-12-29T03:23:16.516Z,79.10
2022-12-29T03:25:53.560Z,79.21
2022-12-29T03:28:30.133Z,79.10
2022-12-29T03:31:06.155Z,79.41
2022-12-29T03:33:41.720Z,80.03
2022-12-29T03:36:22.389Z,79.92
2022-12-29T03:39:01.861Z,79.95
2022-12-29T03:41:36.620Z,80.19
2022-12-29T03:44:11.915Z,80.01
2022-12-29T03:46:45.312Z,80.40
2022-12-29T03:49:18.216Z,79.92
2022-12-29T03:51:52.018Z,80.18
2022-12-29T03:54:24.005Z,80.08
2022-12-29T03:56:56.338Z,79.75
2022-12-29T03:59:37.934Z,79.58
2022-12-29T04:02:10.461Z,79.33
2022-12-29T04:04:43.517Z,79.50
2022-12-29T04:07:16.235Z,79.45
2022-12-29T04:09:48.981Z,79.18
2022-12-29T04:12:26.699Z,79.44
2022-12-29T04:14:59.555Z,79.80
2022-12-29T04:17:35.178Z,79.65
2022-12-29T04:20:28.212Z,79.24
2022-12-29T04:23:05.915Z,78.73
2022-12-29T04:25:40.421Z,78.26
2022-12-29T04:28:14.614Z,78.50
2022-12-29T04:30:50.754Z,78.53
2022-12-29T04:33:26.688Z,77.99
2022-12-29T04:35:59.720Z,77.27
2022-12-29T04:38:34.390Z,77.20
2022-12-29T04:41:09.786Z,77.27
2022-12-29T04:43:44.361Z,76.43
2022-12-29T04:46:34.896Z,76.67
2022-12-29T04:49:16.518Z,76.52
2022-12-29T04:51:58.866Z,76.13
2022-12-29T04:54:31.606Z,76.44
2022-12-29T04:57:13.190Z,75.97
2022-12-29T04:59:45.781Z,75.57
2022-12-29T05:02:18.864Z,75.87
2022-12-29T05:04:52.514Z,75.64
2022-12-29T05:07:26.167Z,75.08
2022-12-29T05:09:59.974Z,75.08
2022-12-29T05:12:35.128Z,74.65
2022-12-29T05:15:10.991Z,74.88
2022-12-29T05:17:44.315Z,74.90
2022-12-29T05:20:17.585Z,75.09
2022-12-29T05:22:50.646Z,74.92
2022-12-29T05:25:23.000Z,74.89
2022-12-29T05:28:36.018Z,74.68
2022-12-29T05:31:17.663Z,74.15
2022-12-29T05:33:50.981Z,74.23
2022-12-29T05:36:26.020Z,74.38
2022-12-29T05:39:01.822Z,74.32
2022-12-29T05:41:35.418Z,74.28
2022-12-29T05:44:26.277Z,73.95
2022-12-29T05:47:33.856Z,74.19
2022-12-29T05:50:27.971Z,73.87
2022-12-29T05:53:14.600Z,73.99
2022-12-29T05:55:49.311Z,74.44
2022-12-29T05:58:23.004Z,74.39
2022-12-29T06:00:56.037Z,74.65
2022-12-29T06:03:28.588Z,74.67
2022-12-29T06:06:01.331Z,74.53
2022-12-29T06:08:33.997Z,74.56
2022-12-29T06:11:07.409Z,74.64
2022-12-29T06:13:41.227Z,74.31
2022-12-29T06:16:13.997Z,74.15
2022-12-29T06:18:47.889Z,74.64
2022-12-29T06:21:20.447Z,74.41
2022-12-29T06:23:52.938Z,74.39
2022-12-29T06:26:26.650Z,73.96
2022-12-29T06:28:59.275Z,74.24
2022-12-29T06:31:31.836Z,74.46
2022-12-29T06:34:08.351Z,74.14
2022-12-29T06:36:42.775Z,74.08
2022-12-29T06:39:15.639Z,74.43
2022-12-29T06:41:57.280Z,74.41
2022-12-29T06:44:47.642Z,74.21
2022-12-29T06:47:20.861Z,74.39
2022-12-29T06:49:53.288Z,74.84
2022-12-29T06:52:26.073Z,74.27
2022-12-29T06:54:59.958Z,74.06
2022-12-29T06:57:41.101Z,73.90
2022-12-29T07:00:22.506Z,74.03
2022-12-29T07:02:56.940Z,73.80
2022-12-29T07:05:32.561Z,73.60
2022-12-29T07:08:05.357Z,73.08
2022-12-29T07:10:37.720Z,73.37
2022-12-29T07:13:10.385Z,73.29
2022-12-29T07:15:43.109Z,73.50
2022-12-29T07:18:15.642Z,73.76
2022-12-29T07:20:48.016Z,73.77
2022-12-29T07:23:20.758Z,73.44
2022-12-29T07:26:00.584Z,73.29
2022-12-29T07:28:33.482Z,73.10
2022-12-29T07:31:06.797Z,72.98
2022-12-29T07:33:39.792Z,73.20
2022-12-29T07:36:12.778Z,73.38
2022-12-29T07:38:46.046Z,73.28
2022-12-29T07:41:19.193Z,73.11
2022-12-29T07:43:53.116Z,72.57
2022-12-29T07:46:55.336Z,72.98
2022-12-29T07:49:29.600Z,72.92
2022-12-29T07:52:02.046Z,72.83
2022-12-29T07:54:34.615Z,72.56
2022-12-29T07:57:08.571Z,72.75
2022-12-29T07:59:41.000Z,72.39
2022-12-29T08:02:14.529Z,72.15
2022-12-29T08:04:47.087Z,72.01
2022-12-29T08:07:19.442Z,72.05
2022-12-29T08:09:51.831Z,72.35
2022-12-29T08:12:24.567Z,72.31
2022-12-29T08:14:56.961Z,72.65
2022-12-29T08:17:29.433Z,72.46
2022-12-29T08:20:01.832Z,72.34
2022-12-29T08:22:34.203Z,71.95
2022-12-29T08:25:07.507Z,71.70
2022-12-29T08:27:40.031Z,72.12
2022-12-29T08:30:14.652Z,72.20
2022-12-29T08:32:46.684Z,72.31
2022-12-29T08:35:29.023Z,72.60
2022-12-29T08:38:01.741Z,72.53
2022-12-29T08:40:34.178Z,72.31
2022-12-29T08:43:08.864Z,72.27
2022-12-29T08:45:41.416Z,72.44
2022-12-29T08:48:14.333Z,72.39
2022-12-29T08:50:48.534Z,72.16
2022-12-29T08:53:21.316Z,72.13
2022-12-29T08:56:04.969Z,72.42
2022-12-29T08:58:41.637Z,72.25
2022-12-29T09:01:14.484Z,72.30
2022-12-29T09:06:40.754Z,72.29
2022-12-29T09:09:13.705Z,72.36
2022-12-29T09:11:46.442Z,72.69
2022-12-29T09:14:18.875Z,72.67
2022-12-29T09:17:10.625Z,72.08
2022-12-29T09:19:44.124Z,72.14
2022-12-29T09:22:16.522Z,72.67
2022-12-29T09:24:49.021Z,72.93
2022-12-29T09:27:21.862Z,72.57
2022-12-29T09:29:54.476Z,72.80
2022-12-29T09:32:36.842Z,72.41
2022-12-29T09:35:11.908Z,72.65
2022-12-29T09:37:44.504Z,72.57
2022-12-29T09:40:30.250Z,72.65
2022-12-29T09:43:19.890Z,72.73
2022-12-29T09:46:00.549Z,72.27
2022-12-29T09:48:37.030Z,72.14
2022-12-29T09:51:15.635Z,72.01
2022-12-29T09:53:54.266Z,71.76
2022-12-29T09:56:30.565Z,72.06
2022-12-29T09:59:09.780Z,72.24
2022-12-29T10:01:48.131Z,71.62
2022-12-29T10:04:20.711Z,71.68
2022-12-29T10:10:03.747Z,71.52
2022-12-29T10:12:50.460Z,71.18
2022-12-29T10:15:45.325Z,71.27
2022-12-29T10:18:34.662Z,71.20
2022-12-29T10:21:15.510Z,71.18
2022-12-29T10:23:51.143Z,70.69
2022-12-29T10:26:27.976Z,70.66
2022-12-29T10:29:05.112Z,70.43
2022-12-29T10:31:40.956Z,70.52
2022-12-29T10:34:22.193Z,70.29
2022-12-29T10:36:59.418Z,70.02
2022-12-29T10:39:36.662Z,69.57
2022-12-29T10:42:16.116Z,69.10
2022-12-29T10:44:48.875Z,69.09
2022-12-29T10:47:25.831Z,68.68
2022-12-29T10:49:59.472Z,68.14
2022-12-29T10:52:33.418Z,68.06
2022-12-29T10:55:12.364Z,67.66
2022-12-29T10:57:47.635Z,68.00
2022-12-29T11:00:23.987Z,68.08
2022-12-29T11:03:18.489Z,68.23
2022-12-29T11:05:57.161Z,67.86
2022-12-29T11:08:35.563Z,67.74
2022-12-29T11:11:10.490Z,67.32
2022-12-29T11:13:53.360Z,66.79
2022-12-29T11:16:33.909Z,67.02
2022-12-29T11:19:06.525Z,66.41
2022-12-29T11:21:41.545Z,66.08
2022-12-29T11:24:25.643Z,66.43
2022-12-29T11:27:13.335Z,65.98
2022-12-29T11:29:46.153Z,66.69
2022-12-29T11:32:28.209Z,66.12
2022-12-29T11:35:02.790Z,65.56
2022-12-29T11:37:41.338Z,65.55
2022-12-29T11:40:22.889Z,65.43
2022-12-29T11:42:57.815Z,65.70
2022-12-29T11:45:33.660Z,66.13
2022-12-29T11:48:12.295Z,66.50
2022-12-29T11:50:50.908Z,66.09
2022-12-29T11:53:26.308Z,66.42
2022-12-29T11:56:01.551Z,65.87
2022-12-29T11:58:35.854Z,65.21
2022-12-29T12:01:15.386Z,65.49
2022-12-29T12:03:50.847Z,65.53
2022-12-29T12:06:25.829Z,65.14
2022-12-29T12:08:58.555Z,65.19
2022-12-29T12:11:38.000Z,65.34
2022-12-29T12:14:20.170Z,64.79
2022-12-29T12:17:19.980Z,64.49
2022-12-29T12:20:01.600Z,64.76
2022-12-29T12:22:37.535Z,64.93
2022-12-29T12:25:20.171Z,64.60
2022-12-29T12:27:59.870Z,64.33
2022-12-29T12:30:40.198Z,64.72
2022-12-29T12:33:24.474Z,65.38
2022-12-29T12:36:16.681Z,64.77
2022-12-29T12:39:00.921Z,65.23
2022-12-29T12:41:45.722Z,65.42
2022-12-29T12:44:26.938Z,65.40
2022-12-29T12:47:15.867Z,65.17
2022-12-29T12:50:17.412Z,65.15
2022-12-29T12:53:05.914Z,65.81
2022-12-29T12:56:05.018Z,65.78
2022-12-29T12:58:50.575Z,65.41
2022-12-29T13:01:36.173Z,65.56
2022-12-29T13:04:31.549Z,65.47
2022-12-29T13:07:12.753Z,65.33
2022-12-29T13:09:56.894Z,65.23
2022-12-29T13:12:38.573Z,65.57
2022-12-29T13:15:24.008Z,65.34
2022-12-29T13:18:06.618Z,65.42
2022-12-29T13:20:44.007Z,65.07
2022-12-29T13:23:26.922Z,65.37
2022-12-29T13:26:07.030Z,65.27
2022-12-29T13:32:15.824Z,65.21
2022-12-29T13:34:59.204Z,65.78
2022-12-29T13:37:35.816Z,65.33
2022-12-29T13:40:45.385Z,65.35
2022-12-29T13:43:22.383Z,65.73
2022-12-29T13:46:02.154Z,65.58
2022-12-29T13:48:44.057Z,65.66
2022-12-29T13:51:21.386Z,65.68
2022-12-29T13:54:13.699Z,65.66
2022-12-29T13:56:53.438Z,65.68
2022-12-29T13:59:41.448Z,65.84
2022-12-29T14:02:23.993Z,66.16
2022-12-29T14:05:05.697Z,66.29
2022-12-29T14:07:42.057Z,66.14
2022-12-29T14:10:31.445Z,65.87
2022-12-29T14:13:16.981Z,65.85
2022-12-29T14:15:58.921Z,66.07
2022-12-29T14:18:34.414Z,65.95
2022-12-29T14:21:19.816Z,65.95
2022-12-29T14:23:55.036Z,66.37
2022-12-29T14:27:03.398Z,66.81
2022-12-29T14:29:48.398Z,66.66
2022-12-29T14:32:36.779Z,66.88
2022-12-29T14:35:40.675Z,67.09
2022-12-29T14:38:21.826Z,67.30
2022-12-29T14:40:55.504Z,66.76
2022-12-29T14:43:31.654Z,66.69
2022-12-29T14:46:05.233Z,66.49
2022-12-29T14:48:44.892Z,66.26
2022-12-29T14:51:32.238Z,66.36
2022-12-29T14:54:37.996Z,66.49
2022-12-29T14:57:09.888Z,66.90
2022-12-29T14:59:43.019Z,67.14
2022-12-29T15:02:22.677Z,67.00
2022-12-29T15:04:56.173Z,66.84
2022-12-29T15:07:31.191Z,67.49
2022-12-29T15:10:09.924Z,67.46
2022-12-29T15:12:48.995Z,67.54
2022-12-29T15:15:25.325Z,67.27
2022-12-29T15:17:58.277Z,66.86
2022-12-29T15:20:33.869Z,66.44
2022-12-29T15:23:11.785Z,66.78
2022-12-29T15:25:53.338Z,66.74
2022-12-29T15:28:27.981Z,66.92
2022-12-29T15:31:07.011Z,66.67
2022-12-29T15:33:44.884Z,66.50
2022-12-29T15:36:21.218Z,66.72
2022-12-29T15:38:54.549Z,67.10
2022-12-29T15:41:59.188Z,66.72
2022-12-29T15:44:38.579Z,66.88
2022-12-29T15:47:19.168Z,66.59
2022-12-29T15:49:55.182Z,66.69
2022-12-29T15:52:27.944Z,66.87
2022-12-29T15:55:02.823Z,66.91
2022-12-29T15:57:46.406Z,67.19
2022-12-29T16:00:34.443Z,67.06
2022-12-29T16:03:14.512Z,66.81
2022-12-29T16:05:54.377Z,67.10
2022-12-29T16:08:34.858Z,67.28
2022-12-29T16:11:26.317Z,66.74
2022-12-29T16:13:59.745Z,66.91
2022-12-29T16:16:35.639Z,66.69
2022-12-29T16:19:15.808Z,66.75
2022-12-29T16:21:49.056Z,66.46
2022-12-29T16:24:25.858Z,66.79
2022-12-29T16:27:10.887Z,66.62
2022-12-29T16:29:44.153Z,66.57
2022-12-29T16:32:30.266Z,66.84
2022-12-29T16:35:19.308Z,66.91
2022-12-29T16:38:09.199Z,66.85
2022-12-29T16:40:54.158Z,66.56
2022-12-29T16:43:29.406Z,66.80
2022-12-29T16:46:32.483Z,67.04
2022-12-29T16:49:06.437Z,66.76
2022-12-29T16:51:41.536Z,66.77
2022-12-29T16:54:24.228Z,66.52
2022-12-29T16:56:57.778Z,66.59
2022-12-29T16:59:38.202Z,66.16
2022-12-29T17:02:17.978Z,66.51
2022-12-29T17:04:51.659Z,66.47
2022-12-29T17:07:26.721Z,66.42
2022-12-29T17:09:59.604Z,66.14
2022-12-29T17:12:35.395Z,66.38
2022-12-29T17:15:14.430Z,66.44
2022-12-29T17:17:49.178Z,66.12
2022-12-29T17:20:22.917Z,66.02
2022-12-29T17:22:55.581Z,66.11
2022-12-29T17:25:32.167Z,66.02
2022-12-29T17:28:14.115Z,66.13
2022-12-29T17:30:46.779Z,66.06
2022-12-29T17:33:22.057Z,65.87
2022-12-29T17:35:55.938Z,65.93
2022-12-29T17:38:31.895Z,65.98
2022-12-29T17:41:05.157Z,66.43
2022-12-29T17:43:38.386Z,66.81
2022-12-29T17:46:11.581Z,66.77
2022-12-29T17:48:49.662Z,66.69
2022-12-29T17:51:26.391Z,66.93
2022-12-29T17:53:58.897Z,66.78
2022-12-29T17:56:31.728Z,66.81
2022-12-29T17:59:04.611Z,67.37
2022-12-29T18:01:40.998Z,67.39
2022-12-29T18:04:18.296Z,67.51
2022-12-29T18:06:50.907Z,67.70
2022-12-29T18:09:23.498Z,67.81
2022-12-29T18:11:56.013Z,67.55
2022-12-29T18:14:28.654Z,67.50
2022-12-29T18:17:01.110Z,67.71
2022-12-29T18:19:36.112Z,67.92
2022-12-29T18:22:09.823Z,67.78
2022-12-29T18:24:42.362Z,67.67
2022-12-29T18:27:17.835Z,67.90
2022-12-29T18:29:50.953Z,67.99
2022-12-29T18:32:23.406Z,67.57
2022-12-29T18:34:55.764Z,67.61
2022-12-29T18:37:28.324Z,68.00
2022-12-29T18:40:00.818Z,68.04
2022-12-29T18:42:33.589Z,67.39
2022-12-29T18:45:19.048Z,67.69
2022-12-29T18:47:52.313Z,68.20
2022-12-29T18:50:24.965Z,68.35
2022-12-29T18:53:03.544Z,67.97
2022-12-29T18:55:36.684Z,68.02
2022-12-29T18:58:09.314Z,67.96
2022-12-29T19:00:42.187Z,68.25
2022-12-29T19:03:16.607Z,68.00
2022-12-29T19:05:49.995Z,67.78
2022-12-29T19:08:22.672Z,67.89
2022-12-29T19:10:55.114Z,67.70
2022-12-29T19:13:29.566Z,67.56
2022-12-29T19:16:04.060Z,67.87
2022-12-29T19:18:46.265Z,67.82
2022-12-29T19:21:22.098Z,67.86
2022-12-29T19:23:55.078Z,68.27
2022-12-29T19:26:34.420Z,68.08
2022-12-29T19:29:09.166Z,68.42
2022-12-29T19:31:42.002Z,68.50
2022-12-29T19:34:16.739Z,68.11
2022-12-29T19:36:49.239Z,68.35
2022-12-29T19:39:22.188Z,68.08
2022-12-29T19:41:59.045Z,67.79
2022-12-29T19:44:34.848Z,67.83
2022-12-29T19:47:07.522Z,67.86
2022-12-29T19:49:39.993Z,67.87
2022-12-29T19:52:12.525Z,68.03
2022-12-29T19:54:45.242Z,68.02
2022-12-29T19:57:17.729Z,67.98
2022-12-29T19:59:50.401Z,67.68
2022-12-29T20:02:25.788Z,67.86
2022-12-29T20:04:59.005Z,67.70
2022-12-29T20:07:31.838Z,67.78
2022-12-29T20:10:05.519Z,67.91
2022-12-29T20:12:40.248Z,67.82
2022-12-29T20:15:15.152Z,67.97
2022-12-29T20:18:15.470Z,68.25
2022-12-29T20:20:40.604Z,68.34
2022-12-29T20:23:12.986Z,68.10
2022-12-29T20:25:47.001Z,68.12
2022-12-29T20:28:20.525Z,68.20
2022-12-29T20:31:02.994Z,68.49
2022-12-29T20:33:38.457Z,68.43
2022-12-29T20:36:15.250Z,68.14
2022-12-29T20:38:49.437Z,68.06
2022-12-29T20:41:22.916Z,68.54
2022-12-29T20:43:56.051Z,68.73
2022-12-29T20:46:35.369Z,68.47
2022-12-29T20:49:13.782Z,68.60
2022-12-29T20:54:40.117Z,68.50
2022-12-29T20:57:12.828Z,68.84
2022-12-29T20:59:45.775Z,68.55
2022-12-29T21:02:24.206Z,68.61
2022-12-29T21:05:22.602Z,69.01
2022-12-29T21:07:50.392Z,69.45
2022-12-29T21:10:23.620Z,69.52
2022-12-29T21:12:56.415Z,69.39
2022-12-29T21:15:30.127Z,69.50
2022-12-29T21:18:02.604Z,69.45
2022-12-29T21:20:35.472Z,69.60
2022-12-29T21:23:08.969Z,69.79
2022-12-29T21:25:46.602Z,69.30
2022-12-29T21:28:19.408Z,69.57
2022-12-29T21:30:52.665Z,69.54
2022-12-29T21:33:25.396Z,69.80
2022-12-29T21:36:04.367Z,70.09
2022-12-29T21:38:37.277Z,70.17
2022-12-29T21:41:12.175Z,70.07
2022-12-29T21:44:08.970Z,69.70
2022-12-29T21:46:44.116Z,69.87
2022-12-29T21:49:17.355Z,69.94
2022-12-29T21:51:54.272Z,69.73
2022-12-29T21:54:46.363Z,69.58
2022-12-29T21:57:34.823Z,69.87
2022-12-29T22:00:28.326Z,69.50
2022-12-29T22:03:23.170Z,69.52
2022-12-29T22:06:14.761Z,69.65
2022-12-29T22:09:05.196Z,69.63
2022-12-29T22:11:55.388Z,69.78
2022-12-29T22:14:28.062Z,69.74
2022-12-29T22:17:01.028Z,69.22
2022-12-29T22:19:33.548Z,68.93
2022-12-29T22:22:06.709Z,69.10
2022-12-29T22:24:39.251Z,69.17
2022-12-29T22:27:12.255Z,69.18
2022-12-29T22:29:45.008Z,69.37
2022-12-29T22:32:18.053Z,69.18
2022-12-29T22:34:51.579Z,68.92
2022-12-29T22:37:24.270Z,69.27
2022-12-29T22:39:56.726Z,69.47
2022-12-29T22:42:29.509Z,69.90
2022-12-29T22:45:02.168Z,69.89
2022-12-29T22:47:34.628Z,69.84
2022-12-29T22:50:08.460Z,69.67
2022-12-29T22:52:41.048Z,69.86
2022-12-29T22:55:14.080Z,69.87
2022-12-29T22:57:46.581Z,69.79
2022-12-29T23:00:19.651Z,69.49
2022-12-29T23:02:52.313Z,69.64
2022-12-29T23:05:25.010Z,70.07
2022-12-29T23:07:57.581Z,70.20
2022-12-29T23:10:29.913Z,70.30
2022-12-29T23:13:02.366Z,70.03
2022-12-29T23:15:38.522Z,69.98
2022-12-29T23:18:11.575Z,69.96
2022-12-29T23:20:44.786Z,70.15
2022-12-29T23:23:43.246Z,69.99
2022-12-29T23:26:23.790Z,70.27
2022-12-29T23:29:00.291Z,69.89
2022-12-29T23:31:35.059Z,69.98
2022-12-29T23:34:09.511Z,70.12
2022-12-29T23:36:42.359Z,70.87
2022-12-29T23:39:21.488Z,70.46
2022-12-29T23:41:54.068Z,70.82
2022-12-29T23:44:26.800Z,70.08
2022-12-29T23:46:59.437Z,70.28
2022-12-29T23:49:32.213Z,71.03
2022-12-29T23:52:04.741Z,70.93
2022-12-29T23:54:37.447Z,70.65
2022-12-29T23:57:09.830Z,70.67
2022-12-29T23:59:42.324Z,70.60
